sensor_id;sensor_type;location;lat;lon;timestamp;temperature;humidity
40828;DHT22;26549;50.918;5.338;2023-06-04T00:01:40;17.00;81.00
40828;DHT22;26549;50.918;5.338;2023-06-04T00:04:06;16.90;81.10
40828;DHT22;26549;50.918;5.338;2023-06-04T00:06:33;17.00;80.70
40828;DHT22;26549;50.918;5.338;2023-06-04T00:08:58;17.00;80.70
40828;DHT22;26549;50.918;5.338;2023-06-04T00:11:24;17.00;80.80
40828;DHT22;26549;50.918;5.338;2023-06-04T00:13:51;17.00;80.60
40828;DHT22;26549;50.918;5.338;2023-06-04T00:16:17;17.00;80.90
40828;DHT22;26549;50.918;5.338;2023-06-04T00:18:43;16.80;82.40
40828;DHT22;26549;50.918;5.338;2023-06-04T00:21:08;16.80;82.10
40828;DHT22;26549;50.918;5.338;2023-06-04T00:23:34;16.70;82.40
40828;DHT22;26549;50.918;5.338;2023-06-04T00:26:00;16.80;81.90
40828;DHT22;26549;50.918;5.338;2023-06-04T00:28:26;16.60;82.20
40828;DHT22;26549;50.918;5.338;2023-06-04T00:30:51;16.60;82.70
40828;DHT22;26549;50.918;5.338;2023-06-04T00:33:20;16.50;83.10
40828;DHT22;26549;50.918;5.338;2023-06-04T00:35:47;16.50;82.00
40828;DHT22;26549;50.918;5.338;2023-06-04T00:38:13;16.50;82.70
40828;DHT22;26549;50.918;5.338;2023-06-04T00:40:38;16.40;81.60
40828;DHT22;26549;50.918;5.338;2023-06-04T00:43:04;16.40;83.50
40828;DHT22;26549;50.918;5.338;2023-06-04T00:45:31;16.40;82.90
40828;DHT22;26549;50.918;5.338;2023-06-04T00:47:57;16.40;82.10
40828;DHT22;26549;50.918;5.338;2023-06-04T00:50:24;16.40;82.00
40828;DHT22;26549;50.918;5.338;2023-06-04T00:52:50;16.40;82.30
40828;DHT22;26549;50.918;5.338;2023-06-04T00:55:17;16.30;81.60
40828;DHT22;26549;50.918;5.338;2023-06-04T00:57:44;16.20;81.90
40828;DHT22;26549;50.918;5.338;2023-06-04T01:00:10;16.10;82.10
40828;DHT22;26549;50.918;5.338;2023-06-04T01:02:38;16.10;82.20
40828;DHT22;26549;50.918;5.338;2023-06-04T01:07:42;16.20;82.40
40828;DHT22;26549;50.918;5.338;2023-06-04T01:10:12;16.10;82.70
40828;DHT22;26549;50.918;5.338;2023-06-04T01:12:42;16.10;82.50
40828;DHT22;26549;50.918;5.338;2023-06-04T01:15:09;16.00;83.00
40828;DHT22;26549;50.918;5.338;2023-06-04T01:17:43;16.00;83.30
40828;DHT22;26549;50.918;5.338;2023-06-04T01:20:19;16.00;82.20
40828;DHT22;26549;50.918;5.338;2023-06-04T01:25:36;16.00;82.30
40828;DHT22;26549;50.918;5.338;2023-06-04T01:28:10;16.10;82.10
40828;DHT22;26549;50.918;5.338;2023-06-04T01:30:43;16.00;82.30
40828;DHT22;26549;50.918;5.338;2023-06-04T01:33:12;16.00;82.30
40828;DHT22;26549;50.918;5.338;2023-06-04T01:35:38;16.00;83.40
40828;DHT22;26549;50.918;5.338;2023-06-04T01:38:04;16.00;83.20
40828;DHT22;26549;50.918;5.338;2023-06-04T01:40:30;15.70;82.40
40828;DHT22;26549;50.918;5.338;2023-06-04T01:42:57;15.60;83.30
40828;DHT22;26549;50.918;5.338;2023-06-04T01:45:24;15.60;83.20
40828;DHT22;26549;50.918;5.338;2023-06-04T01:47:51;15.60;83.30
40828;DHT22;26549;50.918;5.338;2023-06-04T01:50:17;15.40;83.40
40828;DHT22;26549;50.918;5.338;2023-06-04T01:52:43;15.30;83.70
40828;DHT22;26549;50.918;5.338;2023-06-04T01:55:11;15.30;84.30
40828;DHT22;26549;50.918;5.338;2023-06-04T01:57:39;15.30;84.10
40828;DHT22;26549;50.918;5.338;2023-06-04T02:00:06;15.20;84.60
40828;DHT22;26549;50.918;5.338;2023-06-04T02:02:41;15.10;84.50
40828;DHT22;26549;50.918;5.338;2023-06-04T02:05:07;15.20;84.80
40828;DHT22;26549;50.918;5.338;2023-06-04T02:07:37;15.20;84.70
40828;DHT22;26549;50.918;5.338;2023-06-04T02:10:30;15.10;85.40
40828;DHT22;26549;50.918;5.338;2023-06-04T02:13:01;15.00;85.30
40828;DHT22;26549;50.918;5.338;2023-06-04T02:15:32;15.00;85.40
40828;DHT22;26549;50.918;5.338;2023-06-04T02:18:11;15.00;85.40
40828;DHT22;26549;50.918;5.338;2023-06-04T02:20:42;14.90;85.60
40828;DHT22;26549;50.918;5.338;2023-06-04T02:23:08;15.00;86.10
40828;DHT22;26549;50.918;5.338;2023-06-04T02:25:34;15.10;85.70
40828;DHT22;26549;50.918;5.338;2023-06-04T02:27:59;15.20;85.90
40828;DHT22;26549;50.918;5.338;2023-06-04T02:30:25;15.20;85.40
40828;DHT22;26549;50.918;5.338;2023-06-04T02:32:51;15.10;85.70
40828;DHT22;26549;50.918;5.338;2023-06-04T02:35:17;15.10;85.80
40828;DHT22;26549;50.918;5.338;2023-06-04T02:37:43;15.00;86.40
40828;DHT22;26549;50.918;5.338;2023-06-04T02:40:10;15.10;86.40
40828;DHT22;26549;50.918;5.338;2023-06-04T02:42:36;15.00;86.90
40828;DHT22;26549;50.918;5.338;2023-06-04T02:45:01;14.90;88.00
40828;DHT22;26549;50.918;5.338;2023-06-04T02:47:27;14.90;87.20
40828;DHT22;26549;50.918;5.338;2023-06-04T02:49:54;14.90;87.40
40828;DHT22;26549;50.918;5.338;2023-06-04T02:52:20;14.80;87.90
40828;DHT22;26549;50.918;5.338;2023-06-04T02:54:50;14.80;87.70
40828;DHT22;26549;50.918;5.338;2023-06-04T02:57:15;14.80;88.20
40828;DHT22;26549;50.918;5.338;2023-06-04T02:59:41;14.90;87.80
40828;DHT22;26549;50.918;5.338;2023-06-04T03:02:07;14.90;87.90
40828;DHT22;26549;50.918;5.338;2023-06-04T03:04:33;14.80;89.10
40828;DHT22;26549;50.918;5.338;2023-06-04T03:07:02;14.80;89.30
40828;DHT22;26549;50.918;5.338;2023-06-04T03:09:30;14.90;89.10
40828;DHT22;26549;50.918;5.338;2023-06-04T03:11:59;14.80;89.10
40828;DHT22;26549;50.918;5.338;2023-06-04T03:14:26;14.80;89.60
40828;DHT22;26549;50.918;5.338;2023-06-04T03:17:01;14.80;89.60
40828;DHT22;26549;50.918;5.338;2023-06-04T03:19:36;14.70;90.00
40828;DHT22;26549;50.918;5.338;2023-06-04T03:22:03;14.80;89.90
40828;DHT22;26549;50.918;5.338;2023-06-04T03:24:35;14.90;90.00
40828;DHT22;26549;50.918;5.338;2023-06-04T03:27:02;14.70;90.40
40828;DHT22;26549;50.918;5.338;2023-06-04T03:29:29;14.50;90.60
40828;DHT22;26549;50.918;5.338;2023-06-04T03:31:56;14.50;90.60
40828;DHT22;26549;50.918;5.338;2023-06-04T03:34:22;14.50;90.70
40828;DHT22;26549;50.918;5.338;2023-06-04T03:36:52;14.50;90.90
40828;DHT22;26549;50.918;5.338;2023-06-04T03:39:18;14.50;91.00
40828;DHT22;26549;50.918;5.338;2023-06-04T03:41:44;14.60;91.00
40828;DHT22;26549;50.918;5.338;2023-06-04T03:44:09;14.60;91.10
40828;DHT22;26549;50.918;5.338;2023-06-04T03:46:37;14.50;91.30
40828;DHT22;26549;50.918;5.338;2023-06-04T03:49:03;14.50;91.40
40828;DHT22;26549;50.918;5.338;2023-06-04T03:51:29;14.50;91.70
40828;DHT22;26549;50.918;5.338;2023-06-04T03:53:54;14.40;91.80
40828;DHT22;26549;50.918;5.338;2023-06-04T03:56:20;14.40;92.10
40828;DHT22;26549;50.918;5.338;2023-06-04T03:58:47;14.60;91.80
40828;DHT22;26549;50.918;5.338;2023-06-04T04:01:12;14.60;92.20
40828;DHT22;26549;50.918;5.338;2023-06-04T04:03:38;14.50;92.30
40828;DHT22;26549;50.918;5.338;2023-06-04T04:06:04;14.50;92.20
40828;DHT22;26549;50.918;5.338;2023-06-04T04:08:30;14.60;92.50
40828;DHT22;26549;50.918;5.338;2023-06-04T04:11:00;14.70;92.30
40828;DHT22;26549;50.918;5.338;2023-06-04T04:13:26;14.80;92.70
40828;DHT22;26549;50.918;5.338;2023-06-04T04:15:52;14.90;92.40
40828;DHT22;26549;50.918;5.338;2023-06-04T04:18:21;14.90;92.50
40828;DHT22;26549;50.918;5.338;2023-06-04T04:20:47;14.90;92.10
40828;DHT22;26549;50.918;5.338;2023-06-04T04:23:14;14.90;92.50
40828;DHT22;26549;50.918;5.338;2023-06-04T04:25:40;14.90;92.40
40828;DHT22;26549;50.918;5.338;2023-06-04T04:28:07;14.90;92.40
40828;DHT22;26549;50.918;5.338;2023-06-04T04:30:34;15.00;92.80
40828;DHT22;26549;50.918;5.338;2023-06-04T04:33:03;15.00;93.10
40828;DHT22;26549;50.918;5.338;2023-06-04T04:35:32;15.00;93.20
40828;DHT22;26549;50.918;5.338;2023-06-04T04:38:00;15.00;93.10
40828;DHT22;26549;50.918;5.338;2023-06-04T04:40:29;15.10;93.10
40828;DHT22;26549;50.918;5.338;2023-06-04T04:42:55;15.10;93.30
40828;DHT22;26549;50.918;5.338;2023-06-04T04:45:21;15.00;93.30
40828;DHT22;26549;50.918;5.338;2023-06-04T04:47:46;15.10;93.30
40828;DHT22;26549;50.918;5.338;2023-06-04T04:50:12;15.10;93.20
40828;DHT22;26549;50.918;5.338;2023-06-04T04:52:38;15.20;93.20
40828;DHT22;26549;50.918;5.338;2023-06-04T04:55:04;15.20;93.00
40828;DHT22;26549;50.918;5.338;2023-06-04T04:57:30;15.20;93.20
40828;DHT22;26549;50.918;5.338;2023-06-04T04:59:56;15.10;93.10
40828;DHT22;26549;50.918;5.338;2023-06-04T05:02:23;15.20;93.50
40828;DHT22;26549;50.918;5.338;2023-06-04T05:04:48;15.20;93.70
40828;DHT22;26549;50.918;5.338;2023-06-04T05:07:14;15.10;94.00
40828;DHT22;26549;50.918;5.338;2023-06-04T05:09:41;15.20;94.20
40828;DHT22;26549;50.918;5.338;2023-06-04T05:12:06;15.20;93.80
40828;DHT22;26549;50.918;5.338;2023-06-04T05:14:32;15.40;93.80
40828;DHT22;26549;50.918;5.338;2023-06-04T05:17:01;15.50;93.50
40828;DHT22;26549;50.918;5.338;2023-06-04T05:19:28;15.60;93.40
40828;DHT22;26549;50.918;5.338;2023-06-04T05:21:58;15.60;93.50
40828;DHT22;26549;50.918;5.338;2023-06-04T05:24:26;15.70;93.70
40828;DHT22;26549;50.918;5.338;2023-06-04T05:26:51;15.70;93.60
40828;DHT22;26549;50.918;5.338;2023-06-04T05:29:18;15.60;93.40
40828;DHT22;26549;50.918;5.338;2023-06-04T05:31:44;15.50;93.20
40828;DHT22;26549;50.918;5.338;2023-06-04T05:34:09;15.60;93.50
40828;DHT22;26549;50.918;5.338;2023-06-04T05:36:36;15.50;93.70
40828;DHT22;26549;50.918;5.338;2023-06-04T05:39:03;15.50;93.90
40828;DHT22;26549;50.918;5.338;2023-06-04T05:41:29;15.50;94.10
40828;DHT22;26549;50.918;5.338;2023-06-04T05:43:55;15.60;93.60
40828;DHT22;26549;50.918;5.338;2023-06-04T05:46:22;15.80;93.60
40828;DHT22;26549;50.918;5.338;2023-06-04T05:48:47;15.70;93.60
40828;DHT22;26549;50.918;5.338;2023-06-04T05:51:13;15.80;93.50
40828;DHT22;26549;50.918;5.338;2023-06-04T05:53:39;15.70;93.90
40828;DHT22;26549;50.918;5.338;2023-06-04T05:56:05;15.80;93.20
40828;DHT22;26549;50.918;5.338;2023-06-04T05:58:33;15.70;93.80
40828;DHT22;26549;50.918;5.338;2023-06-04T06:00:59;15.80;93.70
40828;DHT22;26549;50.918;5.338;2023-06-04T06:03:25;15.80;93.90
40828;DHT22;26549;50.918;5.338;2023-06-04T06:05:53;15.90;93.80
40828;DHT22;26549;50.918;5.338;2023-06-04T06:08:21;15.90;93.60
40828;DHT22;26549;50.918;5.338;2023-06-04T06:10:46;16.00;93.40
40828;DHT22;26549;50.918;5.338;2023-06-04T06:13:12;16.00;93.40
40828;DHT22;26549;50.918;5.338;2023-06-04T06:15:38;16.10;93.40
40828;DHT22;26549;50.918;5.338;2023-06-04T06:18:04;16.20;93.60
40828;DHT22;26549;50.918;5.338;2023-06-04T06:20:30;16.30;93.20
40828;DHT22;26549;50.918;5.338;2023-06-04T06:23:05;16.50;93.10
40828;DHT22;26549;50.918;5.338;2023-06-04T06:25:32;16.70;92.10
40828;DHT22;26549;50.918;5.338;2023-06-04T06:27:58;16.90;92.40
40828;DHT22;26549;50.918;5.338;2023-06-04T06:30:25;17.10;92.10
40828;DHT22;26549;50.918;5.338;2023-06-04T06:32:52;17.40;91.50
40828;DHT22;26549;50.918;5.338;2023-06-04T06:35:20;17.40;91.40
40828;DHT22;26549;50.918;5.338;2023-06-04T06:37:46;17.40;91.00
40828;DHT22;26549;50.918;5.338;2023-06-04T06:40:12;17.50;91.90
40828;DHT22;26549;50.918;5.338;2023-06-04T06:42:37;17.60;91.50
40828;DHT22;26549;50.918;5.338;2023-06-04T06:45:04;17.70;91.00
40828;DHT22;26549;50.918;5.338;2023-06-04T06:47:30;17.70;92.20
40828;DHT22;26549;50.918;5.338;2023-06-04T06:49:57;17.70;91.70
40828;DHT22;26549;50.918;5.338;2023-06-04T06:52:22;17.80;91.20
40828;DHT22;26549;50.918;5.338;2023-06-04T06:54:48;17.90;91.40
40828;DHT22;26549;50.918;5.338;2023-06-04T06:57:14;18.00;91.30
40828;DHT22;26549;50.918;5.338;2023-06-04T06:59:40;18.20;91.00
40828;DHT22;26549;50.918;5.338;2023-06-04T07:02:07;18.30;90.90
40828;DHT22;26549;50.918;5.338;2023-06-04T07:04:33;18.10;90.50
40828;DHT22;26549;50.918;5.338;2023-06-04T07:06:58;18.10;90.80
40828;DHT22;26549;50.918;5.338;2023-06-04T07:09:25;18.30;90.90
40828;DHT22;26549;50.918;5.338;2023-06-04T07:11:51;18.30;91.50
40828;DHT22;26549;50.918;5.338;2023-06-04T07:14:17;18.20;90.30
40828;DHT22;26549;50.918;5.338;2023-06-04T07:16:43;18.30;90.70
40828;DHT22;26549;50.918;5.338;2023-06-04T07:19:09;18.40;90.30
40828;DHT22;26549;50.918;5.338;2023-06-04T07:21:35;18.50;90.50
40828;DHT22;26549;50.918;5.338;2023-06-04T07:24:02;18.60;90.00
40828;DHT22;26549;50.918;5.338;2023-06-04T07:26:28;18.60;90.20
40828;DHT22;26549;50.918;5.338;2023-06-04T07:28:56;18.70;89.60
40828;DHT22;26549;50.918;5.338;2023-06-04T07:31:22;18.80;90.00
40828;DHT22;26549;50.918;5.338;2023-06-04T07:33:49;19.00;89.20
40828;DHT22;26549;50.918;5.338;2023-06-04T07:36:21;19.10;90.00
40828;DHT22;26549;50.918;5.338;2023-06-04T07:38:49;19.10;88.30
40828;DHT22;26549;50.918;5.338;2023-06-04T07:41:15;19.20;88.00
40828;DHT22;26549;50.918;5.338;2023-06-04T07:43:43;19.40;89.60
40828;DHT22;26549;50.918;5.338;2023-06-04T07:46:09;19.50;87.60
40828;DHT22;26549;50.918;5.338;2023-06-04T07:48:36;19.50;87.30
40828;DHT22;26549;50.918;5.338;2023-06-04T07:51:02;19.20;88.90
40828;DHT22;26549;50.918;5.338;2023-06-04T07:53:29;19.20;88.10
40828;DHT22;26549;50.918;5.338;2023-06-04T07:55:56;19.00;88.60
40828;DHT22;26549;50.918;5.338;2023-06-04T07:58:22;19.30;90.00
40828;DHT22;26549;50.918;5.338;2023-06-04T08:00:48;19.40;87.90
40828;DHT22;26549;50.918;5.338;2023-06-04T08:03:15;19.60;87.80
40828;DHT22;26549;50.918;5.338;2023-06-04T08:05:41;19.80;90.00
40828;DHT22;26549;50.918;5.338;2023-06-04T08:08:07;20.00;87.30
40828;DHT22;26549;50.918;5.338;2023-06-04T08:10:33;20.10;88.40
40828;DHT22;26549;50.918;5.338;2023-06-04T08:12:59;20.20;87.80
40828;DHT22;26549;50.918;5.338;2023-06-04T08:15:25;20.20;86.80
40828;DHT22;26549;50.918;5.338;2023-06-04T08:17:51;20.40;85.70
40828;DHT22;26549;50.918;5.338;2023-06-04T08:20:17;20.40;84.80
40828;DHT22;26549;50.918;5.338;2023-06-04T08:22:43;20.30;85.50
40828;DHT22;26549;50.918;5.338;2023-06-04T08:25:08;20.40;84.30
40828;DHT22;26549;50.918;5.338;2023-06-04T08:27:34;20.50;84.30
40828;DHT22;26549;50.918;5.338;2023-06-04T08:30:00;20.70;83.30
40828;DHT22;26549;50.918;5.338;2023-06-04T08:32:27;20.90;83.20
40828;DHT22;26549;50.918;5.338;2023-06-04T08:34:53;20.90;82.70
40828;DHT22;26549;50.918;5.338;2023-06-04T08:37:19;21.00;82.70
40828;DHT22;26549;50.918;5.338;2023-06-04T08:39:45;21.00;82.30
40828;DHT22;26549;50.918;5.338;2023-06-04T08:42:18;21.00;81.10
40828;DHT22;26549;50.918;5.338;2023-06-04T08:44:50;21.00;82.20
40828;DHT22;26549;50.918;5.338;2023-06-04T08:47:19;21.10;81.00
40828;DHT22;26549;50.918;5.338;2023-06-04T08:49:49;21.10;82.50
40828;DHT22;26549;50.918;5.338;2023-06-04T08:52:16;21.10;80.20
40828;DHT22;26549;50.918;5.338;2023-06-04T08:54:43;21.20;78.50
40828;DHT22;26549;50.918;5.338;2023-06-04T08:57:09;21.30;80.20
40828;DHT22;26549;50.918;5.338;2023-06-04T08:59:38;21.50;77.90
40828;DHT22;26549;50.918;5.338;2023-06-04T09:02:08;21.40;78.50
40828;DHT22;26549;50.918;5.338;2023-06-04T09:04:35;21.40;79.50
40828;DHT22;26549;50.918;5.338;2023-06-04T09:07:03;21.30;79.80
40828;DHT22;26549;50.918;5.338;2023-06-04T09:09:31;21.10;79.20
40828;DHT22;26549;50.918;5.338;2023-06-04T09:12:01;21.00;80.40
40828;DHT22;26549;50.918;5.338;2023-06-04T09:14:28;21.10;83.30
40828;DHT22;26549;50.918;5.338;2023-06-04T09:16:55;21.20;77.60
40828;DHT22;26549;50.918;5.338;2023-06-04T09:19:24;21.20;77.40
40828;DHT22;26549;50.918;5.338;2023-06-04T09:21:55;21.30;78.50
40828;DHT22;26549;50.918;5.338;2023-06-04T09:24:23;21.50;78.10
40828;DHT22;26549;50.918;5.338;2023-06-04T09:26:50;21.60;77.20
40828;DHT22;26549;50.918;5.338;2023-06-04T09:29:18;21.70;76.70
40828;DHT22;26549;50.918;5.338;2023-06-04T09:31:56;21.70;76.80
40828;DHT22;26549;50.918;5.338;2023-06-04T09:34:30;21.80;77.70
40828;DHT22;26549;50.918;5.338;2023-06-04T09:36:57;22.10;76.90
40828;DHT22;26549;50.918;5.338;2023-06-04T09:39:23;22.10;75.50
40828;DHT22;26549;50.918;5.338;2023-06-04T09:42:02;22.20;75.70
40828;DHT22;26549;50.918;5.338;2023-06-04T09:44:31;22.00;75.60
40828;DHT22;26549;50.918;5.338;2023-06-04T09:46:58;21.90;74.80
40828;DHT22;26549;50.918;5.338;2023-06-04T09:49:24;21.90;77.60
40828;DHT22;26549;50.918;5.338;2023-06-04T09:51:52;22.10;74.10
40828;DHT22;26549;50.918;5.338;2023-06-04T09:54:17;22.00;74.70
40828;DHT22;26549;50.918;5.338;2023-06-04T09:56:43;22.10;76.10
40828;DHT22;26549;50.918;5.338;2023-06-04T09:59:13;22.20;75.30
40828;DHT22;26549;50.918;5.338;2023-06-04T10:01:39;22.30;78.80
40828;DHT22;26549;50.918;5.338;2023-06-04T10:04:09;22.50;75.40
40828;DHT22;26549;50.918;5.338;2023-06-04T10:06:39;22.70;74.80
40828;DHT22;26549;50.918;5.338;2023-06-04T10:09:08;22.60;78.20
40828;DHT22;26549;50.918;5.338;2023-06-04T10:11:37;22.70;74.40
40828;DHT22;26549;50.918;5.338;2023-06-04T10:16:42;22.70;76.20
40828;DHT22;26549;50.918;5.338;2023-06-04T10:19:09;22.80;77.40
40828;DHT22;26549;50.918;5.338;2023-06-04T10:21:36;22.90;76.60
40828;DHT22;26549;50.918;5.338;2023-06-04T10:24:03;23.00;74.20
40828;DHT22;26549;50.918;5.338;2023-06-04T10:26:29;22.90;74.20
40828;DHT22;26549;50.918;5.338;2023-06-04T10:28:57;22.90;73.40
40828;DHT22;26549;50.918;5.338;2023-06-04T10:31:25;23.00;74.70
40828;DHT22;26549;50.918;5.338;2023-06-04T10:33:57;23.10;74.40
40828;DHT22;26549;50.918;5.338;2023-06-04T10:36:24;23.00;73.60
40828;DHT22;26549;50.918;5.338;2023-06-04T10:38:54;22.90;76.40
40828;DHT22;26549;50.918;5.338;2023-06-04T10:41:21;22.90;72.70
40828;DHT22;26549;50.918;5.338;2023-06-04T10:43:49;22.80;73.30
40828;DHT22;26549;50.918;5.338;2023-06-04T10:46:18;23.10;74.10
40828;DHT22;26549;50.918;5.338;2023-06-04T10:48:51;23.10;74.40
40828;DHT22;26549;50.918;5.338;2023-06-04T10:51:31;23.10;72.50
40828;DHT22;26549;50.918;5.338;2023-06-04T10:53:58;23.20;74.20
40828;DHT22;26549;50.918;5.338;2023-06-04T10:56:31;23.30;73.40
40828;DHT22;26549;50.918;5.338;2023-06-04T10:59:14;23.20;73.80
40828;DHT22;26549;50.918;5.338;2023-06-04T11:01:40;23.30;73.80
40828;DHT22;26549;50.918;5.338;2023-06-04T11:04:07;23.10;73.60
40828;DHT22;26549;50.918;5.338;2023-06-04T11:06:43;23.10;73.90
40828;DHT22;26549;50.918;5.338;2023-06-04T11:09:13;23.30;74.60
40828;DHT22;26549;50.918;5.338;2023-06-04T11:11:41;22.90;74.50
40828;DHT22;26549;50.918;5.338;2023-06-04T11:14:10;22.90;73.70
40828;DHT22;26549;50.918;5.338;2023-06-04T11:16:41;22.80;73.90
40828;DHT22;26549;50.918;5.338;2023-06-04T11:19:07;22.70;73.50
40828;DHT22;26549;50.918;5.338;2023-06-04T11:21:35;22.50;74.70
40828;DHT22;26549;50.918;5.338;2023-06-04T11:24:05;22.80;73.80
40828;DHT22;26549;50.918;5.338;2023-06-04T11:26:46;22.80;72.80
40828;DHT22;26549;50.918;5.338;2023-06-04T11:29:14;22.90;73.90
40828;DHT22;26549;50.918;5.338;2023-06-04T11:31:46;22.90;73.10
40828;DHT22;26549;50.918;5.338;2023-06-04T11:34:28;23.00;70.90
40828;DHT22;26549;50.918;5.338;2023-06-04T11:36:55;22.80;72.00
40828;DHT22;26549;50.918;5.338;2023-06-04T11:39:34;22.70;72.00
40828;DHT22;26549;50.918;5.338;2023-06-04T11:42:04;22.70;73.60
40828;DHT22;26549;50.918;5.338;2023-06-04T11:44:31;22.80;71.60
40828;DHT22;26549;50.918;5.338;2023-06-04T11:46:58;23.00;73.30
40828;DHT22;26549;50.918;5.338;2023-06-04T11:49:24;23.20;72.90
40828;DHT22;26549;50.918;5.338;2023-06-04T11:51:52;23.30;70.60
40828;DHT22;26549;50.918;5.338;2023-06-04T11:54:21;23.30;72.00
40828;DHT22;26549;50.918;5.338;2023-06-04T11:56:51;23.30;69.70
40828;DHT22;26549;50.918;5.338;2023-06-04T11:59:18;23.00;69.90
40828;DHT22;26549;50.918;5.338;2023-06-04T12:01:45;23.00;71.00
40828;DHT22;26549;50.918;5.338;2023-06-04T12:04:12;23.00;69.70
40828;DHT22;26549;50.918;5.338;2023-06-04T12:06:56;23.10;71.10
40828;DHT22;26549;50.918;5.338;2023-06-04T12:09:31;23.40;70.80
40828;DHT22;26549;50.918;5.338;2023-06-04T12:11:59;23.20;68.60
40828;DHT22;26549;50.918;5.338;2023-06-04T12:14:29;23.30;71.40
40828;DHT22;26549;50.918;5.338;2023-06-04T12:17:02;23.60;72.10
40828;DHT22;26549;50.918;5.338;2023-06-04T12:19:31;23.90;71.00
40828;DHT22;26549;50.918;5.338;2023-06-04T12:22:05;24.00;71.20
40828;DHT22;26549;50.918;5.338;2023-06-04T12:24:33;24.10;69.30
40828;DHT22;26549;50.918;5.338;2023-06-04T12:27:05;24.20;69.70
40828;DHT22;26549;50.918;5.338;2023-06-04T12:29:33;24.10;69.00
40828;DHT22;26549;50.918;5.338;2023-06-04T12:32:04;23.90;67.90
40828;DHT22;26549;50.918;5.338;2023-06-04T12:34:31;23.60;67.60
40828;DHT22;26549;50.918;5.338;2023-06-04T12:36:57;23.50;68.70
40828;DHT22;26549;50.918;5.338;2023-06-04T12:39:24;23.70;69.60
40828;DHT22;26549;50.918;5.338;2023-06-04T12:41:51;23.80;67.50
40828;DHT22;26549;50.918;5.338;2023-06-04T12:44:17;23.70;65.90
40828;DHT22;26549;50.918;5.338;2023-06-04T12:46:42;23.90;66.90
40828;DHT22;26549;50.918;5.338;2023-06-04T12:49:10;23.80;71.70
40828;DHT22;26549;50.918;5.338;2023-06-04T12:51:37;24.00;67.20
40828;DHT22;26549;50.918;5.338;2023-06-04T12:54:04;24.00;67.60
40828;DHT22;26549;50.918;5.338;2023-06-04T12:56:30;24.00;70.10
40828;DHT22;26549;50.918;5.338;2023-06-04T12:58:56;24.10;70.60
40828;DHT22;26549;50.918;5.338;2023-06-04T13:01:22;24.30;67.40
40828;DHT22;26549;50.918;5.338;2023-06-04T13:03:47;24.20;66.60
40828;DHT22;26549;50.918;5.338;2023-06-04T13:06:13;24.30;72.00
40828;DHT22;26549;50.918;5.338;2023-06-04T13:08:39;24.50;69.80
40828;DHT22;26549;50.918;5.338;2023-06-04T13:11:05;24.30;66.20
40828;DHT22;26549;50.918;5.338;2023-06-04T13:13:32;24.30;69.70
40828;DHT22;26549;50.918;5.338;2023-06-04T13:15:58;24.20;65.80
40828;DHT22;26549;50.918;5.338;2023-06-04T13:18:27;24.30;66.50
40828;DHT22;26549;50.918;5.338;2023-06-04T13:20:54;24.40;67.50
40828;DHT22;26549;50.918;5.338;2023-06-04T13:23:20;24.30;68.10
40828;DHT22;26549;50.918;5.338;2023-06-04T13:25:46;24.50;67.20
40828;DHT22;26549;50.918;5.338;2023-06-04T13:28:12;24.60;66.40
40828;DHT22;26549;50.918;5.338;2023-06-04T13:30:38;24.50;66.60
40828;DHT22;26549;50.918;5.338;2023-06-04T13:33:05;24.60;66.50
40828;DHT22;26549;50.918;5.338;2023-06-04T13:35:31;24.70;66.40
40828;DHT22;26549;50.918;5.338;2023-06-04T13:37:57;24.60;63.40
40828;DHT22;26549;50.918;5.338;2023-06-04T13:40:23;24.70;68.80
40828;DHT22;26549;50.918;5.338;2023-06-04T13:42:49;24.80;64.90
40828;DHT22;26549;50.918;5.338;2023-06-04T13:45:15;24.40;64.80
40828;DHT22;26549;50.918;5.338;2023-06-04T13:47:43;24.50;64.70
40828;DHT22;26549;50.918;5.338;2023-06-04T13:50:10;24.50;67.90
40828;DHT22;26549;50.918;5.338;2023-06-04T13:52:36;24.70;65.40
40828;DHT22;26549;50.918;5.338;2023-06-04T13:55:02;24.80;67.70
40828;DHT22;26549;50.918;5.338;2023-06-04T13:57:28;24.90;66.30
40828;DHT22;26549;50.918;5.338;2023-06-04T13:59:54;25.00;64.20
40828;DHT22;26549;50.918;5.338;2023-06-04T14:02:19;25.00;63.60
40828;DHT22;26549;50.918;5.338;2023-06-04T14:04:46;24.90;61.80
40828;DHT22;26549;50.918;5.338;2023-06-04T14:07:12;24.90;64.00
40828;DHT22;26549;50.918;5.338;2023-06-04T14:09:38;24.70;61.10
40828;DHT22;26549;50.918;5.338;2023-06-04T14:12:04;24.50;61.00
40828;DHT22;26549;50.918;5.338;2023-06-04T14:14:31;24.50;63.00
40828;DHT22;26549;50.918;5.338;2023-06-04T14:17:02;24.50;66.30
40828;DHT22;26549;50.918;5.338;2023-06-04T14:19:28;24.60;63.70
40828;DHT22;26549;50.918;5.338;2023-06-04T14:21:55;24.70;62.30
40828;DHT22;26549;50.918;5.338;2023-06-04T14:24:22;24.80;63.30
40828;DHT22;26549;50.918;5.338;2023-06-04T14:26:47;24.90;63.20
40828;DHT22;26549;50.918;5.338;2023-06-04T14:29:15;25.00;64.30
40828;DHT22;26549;50.918;5.338;2023-06-04T14:31:41;25.00;62.10
40828;DHT22;26549;50.918;5.338;2023-06-04T14:34:06;25.00;64.80
40828;DHT22;26549;50.918;5.338;2023-06-04T14:36:34;25.10;62.80
40828;DHT22;26549;50.918;5.338;2023-06-04T14:39:00;25.20;61.90
40828;DHT22;26549;50.918;5.338;2023-06-04T14:41:25;25.20;62.40
40828;DHT22;26549;50.918;5.338;2023-06-04T14:43:52;25.30;61.80
40828;DHT22;26549;50.918;5.338;2023-06-04T14:46:18;25.30;61.80
40828;DHT22;26549;50.918;5.338;2023-06-04T14:48:44;25.20;62.10
40828;DHT22;26549;50.918;5.338;2023-06-04T14:51:10;25.40;62.90
40828;DHT22;26549;50.918;5.338;2023-06-04T14:53:36;25.40;58.50
40828;DHT22;26549;50.918;5.338;2023-06-04T14:56:05;25.40;60.60
40828;DHT22;26549;50.918;5.338;2023-06-04T14:58:31;25.50;60.20
40828;DHT22;26549;50.918;5.338;2023-06-04T15:00:56;25.30;58.80
40828;DHT22;26549;50.918;5.338;2023-06-04T15:03:24;25.40;60.00
40828;DHT22;26549;50.918;5.338;2023-06-04T15:05:50;25.50;60.40
40828;DHT22;26549;50.918;5.338;2023-06-04T15:08:16;25.60;62.30
40828;DHT22;26549;50.918;5.338;2023-06-04T15:10:42;25.70;60.80
40828;DHT22;26549;50.918;5.338;2023-06-04T15:13:08;25.70;58.70
40828;DHT22;26549;50.918;5.338;2023-06-04T15:15:34;25.70;58.90
40828;DHT22;26549;50.918;5.338;2023-06-04T15:18:00;25.60;59.30
40828;DHT22;26549;50.918;5.338;2023-06-04T15:20:26;25.40;60.40
40828;DHT22;26549;50.918;5.338;2023-06-04T15:22:54;25.20;61.30
40828;DHT22;26549;50.918;5.338;2023-06-04T15:25:21;25.20;63.70
40828;DHT22;26549;50.918;5.338;2023-06-04T15:27:47;25.50;63.20
40828;DHT22;26549;50.918;5.338;2023-06-04T15:30:12;25.50;59.20
40828;DHT22;26549;50.918;5.338;2023-06-04T15:32:38;25.60;61.00
40828;DHT22;26549;50.918;5.338;2023-06-04T15:35:04;25.70;58.60
40828;DHT22;26549;50.918;5.338;2023-06-04T15:37:39;25.80;59.70
40828;DHT22;26549;50.918;5.338;2023-06-04T15:40:05;25.70;60.50